createdAt,value
2022-07-28T00:00:29.971Z,0.00
2022-07-28T00:01:29.978Z,0.00
2022-07-28T00:02:30.157Z,0.00
2022-07-28T00:03:29.942Z,0.00
2022-07-28T00:04:29.853Z,0.00
2022-07-28T00:05:29.812Z,0.00
2022-07-28T00:06:29.792Z,0.00
2022-07-28T00:07:29.820Z,0.00
2022-07-28T00:08:29.781Z,0.00
2022-07-28T00:09:29.747Z,0.00
2022-07-28T00:10:29.686Z,0.00
2022-07-28T00:11:29.640Z,0.00
2022-07-28T00:12:29.577Z,0.00
2022-07-28T00:13:29.615Z,0.00
2022-07-28T00:14:29.548Z,0.00
2022-07-28T00:15:29.520Z,0.00
2022-07-28T00:16:29.491Z,0.00
2022-07-28T00:17:29.417Z,0.00
2022-07-28T00:18:29.802Z,0.00
2022-07-28T00:19:29.347Z,0.00
2022-07-28T00:20:29.322Z,0.00
2022-07-28T00:21:29.302Z,0.00
2022-07-28T00:22:29.264Z,0.00
2022-07-28T00:23:39.221Z,0.00
2022-07-28T00:24:29.218Z,0.00
2022-07-28T00:25:29.153Z,0.00
2022-07-28T00:26:29.210Z,0.00
2022-07-28T00:27:29.122Z,0.00
2022-07-28T00:28:29.112Z,0.00
2022-07-28T00:29:50.496Z,0.00
2022-07-28T00:30:29.002Z,0.00
2022-07-28T00:31:29.699Z,0.00
2022-07-28T00:32:29.610Z,0.00
2022-07-28T00:33:29.001Z,0.00
2022-07-28T00:34:28.877Z,0.00
2022-07-28T00:35:30.822Z,0.00
2022-07-28T00:36:28.806Z,0.00
2022-07-28T00:37:28.813Z,0.00
2022-07-28T00:38:28.889Z,0.00
2022-07-28T00:39:28.769Z,0.00
2022-07-28T00:40:28.685Z,0.00
2022-07-28T00:41:28.635Z,0.00
2022-07-28T00:42:28.598Z,0.00
2022-07-28T00:43:28.592Z,0.00
2022-07-28T00:44:28.615Z,0.00
2022-07-28T00:45:28.568Z,0.00
2022-07-28T00:46:28.543Z,0.00
2022-07-28T00:47:33.928Z,0.00
2022-07-28T00:48:28.421Z,0.00
2022-07-28T00:49:28.376Z,0.00
2022-07-28T00:50:28.388Z,0.00
2022-07-28T00:51:28.314Z,0.00
2022-07-28T00:52:28.305Z,0.00
2022-07-28T00:53:28.238Z,0.00
2022-07-28T00:54:28.214Z,0.00
2022-07-28T00:55:28.247Z,0.00
2022-07-28T00:56:28.183Z,0.00
2022-07-28T00:57:28.135Z,0.00
2022-07-28T00:58:28.077Z,0.00
2022-07-28T00:59:28.060Z,0.00
2022-07-28T01:00:28.076Z,0.00
2022-07-28T01:01:28.071Z,0.00
2022-07-28T01:02:28.143Z,0.00
2022-07-28T01:03:27.936Z,0.00
2022-07-28T01:04:27.879Z,0.00
2022-07-28T01:05:43.562Z,0.00
2022-07-28T01:06:27.962Z,0.00
2022-07-28T01:07:27.811Z,0.00
2022-07-28T01:08:27.764Z,0.00
2022-07-28T01:09:27.729Z,0.00
2022-07-28T01:10:27.692Z,0.00
2022-07-28T01:11:27.722Z,0.00
2022-07-28T01:12:27.684Z,0.00
2022-07-28T01:13:30.060Z,0.00
2022-07-28T01:14:27.552Z,0.00
2022-07-28T01:15:27.526Z,0.00
2022-07-28T01:16:27.761Z,0.00
2022-07-28T01:17:27.477Z,0.00
2022-07-28T01:18:27.420Z,0.00
2022-07-28T01:19:27.385Z,0.00
2022-07-28T01:20:27.353Z,0.00
2022-07-28T01:21:27.350Z,0.00
2022-07-28T01:22:28.232Z,0.00
2022-07-28T01:23:27.259Z,0.00
2022-07-28T01:24:27.318Z,0.00
2022-07-28T01:25:27.212Z,0.00
2022-07-28T01:26:27.153Z,0.00
2022-07-28T01:27:27.357Z,0.00
2022-07-28T01:28:27.194Z,0.00
2022-07-28T01:29:27.151Z,0.00
2022-07-28T01:30:27.762Z,0.00
2022-07-28T01:31:27.055Z,0.00
2022-07-28T01:32:26.968Z,0.00
2022-07-28T01:33:27.005Z,0.00
2022-07-28T01:34:26.906Z,0.00
2022-07-28T01:35:26.863Z,0.00
2022-07-28T01:36:26.837Z,0.00
2022-07-28T01:37:26.902Z,0.00
2022-07-28T01:38:26.771Z,0.00
2022-07-28T01:39:26.788Z,0.00
2022-07-28T01:40:26.700Z,0.00
2022-07-28T01:41:26.684Z,0.00
2022-07-28T01:42:26.717Z,0.00
2022-07-28T01:43:26.716Z,0.00
2022-07-28T01:44:26.567Z,0.00
2022-07-28T01:45:26.530Z,0.00
2022-07-28T01:46:26.540Z,0.00
2022-07-28T01:47:26.550Z,0.00
2022-07-28T01:48:26.499Z,0.00
2022-07-28T01:49:26.556Z,0.00
2022-07-28T01:50:26.382Z,0.00
2022-07-28T01:51:26.346Z,0.00
2022-07-28T01:52:29.236Z,0.00
2022-07-28T01:53:26.327Z,0.00
2022-07-28T01:54:26.320Z,0.00
2022-07-28T01:55:26.202Z,0.00
2022-07-28T01:56:33.130Z,0.00
2022-07-28T01:57:26.160Z,0.00
2022-07-28T01:58:26.137Z,0.00
2022-07-28T01:59:26.188Z,0.00
2022-07-28T02:00:26.115Z,0.00
2022-07-28T02:01:26.059Z,0.00
2022-07-28T02:02:25.973Z,0.00
2022-07-28T02:03:25.942Z,0.00
2022-07-28T02:04:25.905Z,0.00
2022-07-28T02:05:25.966Z,0.00
2022-07-28T02:06:25.899Z,0.00
2022-07-28T02:07:25.804Z,0.00
2022-07-28T02:08:25.774Z,0.00
2022-07-28T02:09:26.634Z,0.00
2022-07-28T02:10:25.718Z,0.00
2022-07-28T02:11:25.737Z,0.00
2022-07-28T02:12:25.650Z,0.00
2022-07-28T02:13:26.130Z,0.00
2022-07-28T02:14:25.583Z,0.00
2022-07-28T02:15:25.602Z,0.00
2022-07-28T02:16:25.592Z,0.00
2022-07-28T02:17:25.468Z,0.00
2022-07-28T02:18:25.451Z,0.00
2022-07-28T02:19:25.439Z,0.00
2022-07-28T02:20:25.456Z,0.00
2022-07-28T02:21:25.361Z,0.00
2022-07-28T02:22:25.324Z,0.00
2022-07-28T02:23:25.319Z,0.00
2022-07-28T02:24:25.304Z,0.00
2022-07-28T02:25:25.345Z,0.00
2022-07-28T02:26:25.233Z,0.00
2022-07-28T02:27:25.203Z,0.00
2022-07-28T02:28:25.127Z,0.00
2022-07-28T02:29:49.020Z,0.00
2022-07-28T02:30:25.053Z,0.00
2022-07-28T02:31:25.253Z,0.00
2022-07-28T02:32:27.699Z,0.00
2022-07-28T02:33:58.157Z,0.00
2022-07-28T02:34:27.845Z,0.00
2022-07-28T02:35:24.880Z,4.00
2022-07-28T02:36:24.907Z,4.00
2022-07-28T02:37:24.807Z,4.00
2022-07-28T02:38:24.779Z,0.00
2022-07-28T02:39:24.746Z,0.00
2022-07-28T02:40:24.722Z,4.00
2022-07-28T02:41:24.805Z,4.00
2022-07-28T02:42:24.646Z,4.00
2022-07-28T02:43:24.633Z,4.00
2022-07-28T02:44:24.587Z,8.00
2022-07-28T02:45:24.563Z,4.00
2022-07-28T02:46:24.658Z,4.00
2022-07-28T02:47:24.530Z,8.00
2022-07-28T02:48:24.450Z,8.00
2022-07-28T02:49:24.475Z,12.00
2022-07-28T02:50:24.386Z,12.00
2022-07-28T02:51:24.358Z,12.00
2022-07-28T02:52:24.383Z,16.00
2022-07-28T02:53:24.359Z,16.00
2022-07-28T02:54:24.253Z,16.00
2022-07-28T02:55:24.218Z,20.00
2022-07-28T02:56:24.176Z,24.00
2022-07-28T02:57:24.154Z,28.00
2022-07-28T02:58:24.188Z,32.00
2022-07-28T02:59:24.096Z,36.00
2022-07-28T03:00:24.052Z,40.00
2022-07-28T03:01:24.052Z,44.00
2022-07-28T03:02:23.986Z,48.00
2022-07-28T03:03:24.019Z,56.00
2022-07-28T03:04:23.914Z,64.00
2022-07-28T03:05:23.940Z,72.00
2022-07-28T03:06:28.393Z,76.00
2022-07-28T03:07:23.817Z,88.00
2022-07-28T03:08:23.859Z,100.00
2022-07-28T03:09:23.751Z,112.00
2022-07-28T03:10:33.350Z,120.00
2022-07-28T03:11:23.714Z,132.00
2022-07-28T03:12:23.658Z,144.00
2022-07-28T03:13:23.625Z,156.00
2022-07-28T03:14:23.652Z,176.00
2022-07-28T03:15:23.745Z,188.00
2022-07-28T03:16:23.571Z,208.00
2022-07-28T03:17:23.504Z,224.00
2022-07-28T03:18:23.476Z,240.00
2022-07-28T03:19:23.469Z,264.00
2022-07-28T03:20:23.397Z,284.00
2022-07-28T03:21:23.357Z,308.00
2022-07-28T03:22:23.315Z,328.00
2022-07-28T03:23:23.289Z,352.00
2022-07-28T03:24:23.320Z,380.00
2022-07-28T03:25:23.216Z,408.00
2022-07-28T03:26:23.196Z,440.00
2022-07-28T03:27:23.165Z,468.00
2022-07-28T03:28:23.134Z,500.00
2022-07-28T03:29:23.203Z,532.00
2022-07-28T03:30:23.091Z,564.00
2022-07-28T03:31:23.135Z,596.00
2022-07-28T03:32:22.979Z,632.00
2022-07-28T03:33:23.031Z,668.00
2022-07-28T03:34:22.915Z,708.00
2022-07-28T03:35:22.951Z,748.00
2022-07-28T03:36:22.916Z,788.00
2022-07-28T03:37:22.829Z,824.00
2022-07-28T03:38:22.781Z,864.00
2022-07-28T03:39:22.751Z,904.00
2022-07-28T03:40:22.784Z,944.00
2022-07-28T03:41:22.677Z,988.00
2022-07-28T03:42:22.650Z,1032.00
2022-07-28T03:43:22.618Z,1076.00
2022-07-28T03:44:26.954Z,1120.00
2022-07-28T03:45:22.637Z,1160.00
2022-07-28T03:46:22.561Z,1208.00
2022-07-28T03:47:22.491Z,1252.00
2022-07-28T03:48:22.456Z,1296.00
2022-07-28T03:49:22.478Z,1340.00
2022-07-28T03:50:22.383Z,1384.00
2022-07-28T03:51:22.418Z,1432.00
2022-07-28T03:52:22.314Z,1480.00
2022-07-28T03:53:22.293Z,1524.00
2022-07-28T03:54:22.250Z,1568.00
2022-07-28T03:55:22.231Z,1620.00
2022-07-28T03:56:22.246Z,1664.00
2022-07-28T03:57:22.174Z,1712.00
2022-07-28T03:58:22.122Z,1760.00
2022-07-28T03:59:22.103Z,1796.00
2022-07-28T04:00:22.050Z,1836.00
2022-07-28T04:01:22.104Z,1880.00
2022-07-28T04:02:22.074Z,1932.00
2022-07-28T04:03:35.745Z,2012.00
2022-07-28T04:04:21.915Z,2156.00
2022-07-28T04:05:21.880Z,2232.00
2022-07-28T04:06:21.913Z,2188.00
2022-07-28T04:07:21.869Z,2172.00
2022-07-28T04:08:21.789Z,2232.00
2022-07-28T04:09:21.753Z,2292.00
2022-07-28T04:10:21.732Z,2356.00
2022-07-28T04:11:21.740Z,2428.00
2022-07-28T04:12:21.708Z,2556.00
2022-07-28T04:13:21.614Z,2640.00
2022-07-28T04:14:22.079Z,2644.00
2022-07-28T04:15:21.561Z,2772.00
2022-07-28T04:16:22.337Z,3012.00
2022-07-28T04:17:21.589Z,3176.00
2022-07-28T04:18:21.455Z,3196.00
2022-07-28T04:19:21.415Z,3336.00
2022-07-28T04:20:21.392Z,3376.00
2022-07-28T04:21:21.363Z,3440.00
2022-07-28T04:22:21.317Z,3496.00
2022-07-28T04:23:21.355Z,3544.00
2022-07-28T04:24:21.324Z,3704.00
2022-07-28T04:25:21.259Z,3924.00
2022-07-28T04:26:21.191Z,4044.00
2022-07-28T04:27:21.179Z,4016.00
2022-07-28T04:28:21.189Z,3976.00
2022-07-28T04:29:27.121Z,4040.00
2022-07-28T04:30:21.078Z,4284.00
2022-07-28T04:31:21.117Z,4300.00
2022-07-28T04:32:20.999Z,3768.00
2022-07-28T04:33:21.032Z,4084.00
2022-07-28T04:34:20.998Z,4676.00
2022-07-28T04:35:20.896Z,3872.00
2022-07-28T04:36:20.899Z,3500.00
2022-07-28T04:37:20.839Z,3580.00
2022-07-28T04:38:20.852Z,4128.00
2022-07-28T04:39:20.842Z,4396.00
2022-07-28T04:40:20.741Z,3804.00
2022-07-28T04:41:20.701Z,3516.00
2022-07-28T04:42:20.676Z,3596.00
2022-07-28T04:43:22.925Z,3552.00
2022-07-28T04:44:20.606Z,3476.00
2022-07-28T04:45:20.638Z,3492.00
2022-07-28T04:46:20.611Z,3556.00
2022-07-28T04:47:20.518Z,3592.00
2022-07-28T04:48:20.476Z,3592.00
2022-07-28T04:49:20.497Z,3724.00
2022-07-28T04:50:20.474Z,3764.00
2022-07-28T04:51:20.441Z,3676.00
2022-07-28T04:52:20.351Z,3752.00
2022-07-28T04:53:20.422Z,3768.00
2022-07-28T04:54:26.084Z,3704.00
2022-07-28T04:55:20.252Z,3652.00
2022-07-28T04:56:20.289Z,3664.00
2022-07-28T04:57:20.220Z,3776.00
2022-07-28T04:58:20.162Z,3820.00
2022-07-28T04:59:20.137Z,3764.00
2022-07-28T05:00:20.092Z,3784.00
2022-07-28T05:01:20.192Z,3832.00
2022-07-28T05:02:20.032Z,3864.00
2022-07-28T05:03:20.004Z,3904.00
2022-07-28T05:04:20.068Z,3960.00
2022-07-28T05:05:19.930Z,4052.00
2022-07-28T05:06:19.971Z,4312.00
2022-07-28T05:07:19.930Z,4620.00
2022-07-28T05:08:19.839Z,4780.00
2022-07-28T05:09:19.820Z,5008.00
2022-07-28T05:10:19.773Z,5720.00
2022-07-28T05:11:19.748Z,6076.00
2022-07-28T05:12:19.760Z,5512.00
2022-07-28T05:13:19.683Z,5868.00
2022-07-28T05:14:19.657Z,6204.00
2022-07-28T05:15:19.620Z,5572.00
2022-07-28T05:16:19.637Z,5368.00
2022-07-28T05:17:19.620Z,5636.00
2022-07-28T05:18:19.534Z,5916.00
2022-07-28T05:19:19.493Z,6332.00
2022-07-28T05:20:19.458Z,6808.00
2022-07-28T05:21:22.410Z,8308.00
2022-07-28T05:22:19.584Z,10536.00
2022-07-28T05:23:19.371Z,11116.00
2022-07-28T05:24:19.336Z,10820.00
2022-07-28T05:25:19.339Z,10104.00
2022-07-28T05:26:19.268Z,8340.00
2022-07-28T05:27:19.271Z,7632.00
2022-07-28T05:28:19.439Z,8228.00
2022-07-28T05:29:19.203Z,9400.00
2022-07-28T05:30:19.166Z,9076.00
2022-07-28T05:31:19.220Z,9064.00
2022-07-28T05:32:19.115Z,10448.00
2022-07-28T05:33:19.403Z,7968.00
2022-07-28T05:34:19.035Z,7736.00
2022-07-28T05:35:19.787Z,7904.00
2022-07-28T05:36:19.156Z,6404.00
2022-07-28T05:37:18.962Z,6824.00
2022-07-28T05:38:18.955Z,7992.00
2022-07-28T05:39:18.977Z,6404.00
2022-07-28T05:40:18.835Z,5908.00
2022-07-28T05:41:18.816Z,6384.00
2022-07-28T05:42:18.781Z,6488.00
2022-07-28T05:43:18.768Z,5812.00
2022-07-28T05:44:18.720Z,5580.00
2022-07-28T05:45:18.739Z,5632.00
2022-07-28T05:46:18.707Z,4912.00
2022-07-28T05:47:18.619Z,4920.00
2022-07-28T05:48:18.591Z,4884.00
2022-07-28T05:49:21.706Z,4636.00
2022-07-28T05:50:18.601Z,4764.00
2022-07-28T05:51:18.500Z,4972.00
2022-07-28T05:52:18.465Z,5120.00
2022-07-28T05:53:18.453Z,5208.00
2022-07-28T05:54:18.408Z,5308.00
2022-07-28T05:55:18.451Z,5416.00
2022-07-28T05:56:18.349Z,5440.00
2022-07-28T05:57:18.323Z,5380.00
2022-07-28T05:58:18.291Z,5384.00
2022-07-28T05:59:18.260Z,5432.00
2022-07-28T06:00:18.224Z,5444.00
2022-07-28T06:01:18.300Z,5472.00
2022-07-28T06:02:18.258Z,5552.00
2022-07-28T06:03:18.131Z,5660.00
2022-07-28T06:04:26.597Z,5776.00
2022-07-28T06:05:18.074Z,5872.00
2022-07-28T06:06:18.042Z,5924.00
2022-07-28T06:07:18.085Z,5900.00
2022-07-28T06:08:17.980Z,5904.00
2022-07-28T06:09:17.985Z,6000.00
2022-07-28T06:10:17.943Z,6064.00
2022-07-28T06:11:22.784Z,6164.00
2022-07-28T06:12:17.907Z,6368.00
2022-07-28T06:13:17.889Z,6460.00
2022-07-28T06:14:18.328Z,6460.00
2022-07-28T06:15:17.777Z,6600.00
2022-07-28T06:16:17.836Z,6780.00
2022-07-28T06:17:17.711Z,6944.00
2022-07-28T06:18:17.877Z,7044.00
2022-07-28T06:19:17.662Z,7216.00
2022-07-28T06:20:17.686Z,7392.00
2022-07-28T06:21:17.590Z,7540.00
2022-07-28T06:22:17.562Z,7676.00
2022-07-28T06:23:17.548Z,7816.00
2022-07-28T06:24:18.014Z,7956.00
2022-07-28T06:25:17.475Z,8088.00
2022-07-28T06:26:17.440Z,8200.00
2022-07-28T06:27:17.410Z,8356.00
2022-07-28T06:28:17.379Z,8492.00
2022-07-28T06:29:17.352Z,8688.00
2022-07-28T06:30:17.384Z,8872.00
2022-07-28T06:31:17.362Z,9100.00
2022-07-28T06:32:17.291Z,9248.00
2022-07-28T06:33:17.514Z,9380.00
2022-07-28T06:34:17.492Z,9476.00
2022-07-28T06:35:17.225Z,9604.00
2022-07-28T06:36:17.145Z,9704.00
2022-07-28T06:37:17.116Z,9784.00
2022-07-28T06:38:17.088Z,9872.00
2022-07-28T06:39:17.054Z,9896.00
2022-07-28T06:40:17.095Z,9924.00
2022-07-28T06:41:16.990Z,9924.00
2022-07-28T06:42:16.968Z,9900.00
2022-07-28T06:43:16.964Z,9816.00
2022-07-28T06:44:17.257Z,9712.00
2022-07-28T06:45:19.553Z,9640.00
2022-07-28T06:46:17.149Z,9632.00
2022-07-28T06:47:16.904Z,9588.00
2022-07-28T06:48:16.794Z,9512.00
2022-07-28T06:49:17.211Z,9416.00
2022-07-28T06:50:25.932Z,9348.00
2022-07-28T06:51:16.700Z,9316.00
2022-07-28T06:52:16.748Z,9284.00
2022-07-28T06:53:16.644Z,9236.00
2022-07-28T06:54:16.901Z,9192.00
2022-07-28T06:55:16.593Z,9160.00
2022-07-28T06:56:16.870Z,9096.00
2022-07-28T06:57:16.862Z,9024.00
2022-07-28T06:58:16.622Z,8940.00
2022-07-28T06:59:16.875Z,8860.00
2022-07-28T07:00:16.447Z,8748.00
2022-07-28T07:01:16.450Z,8608.00
2022-07-28T07:02:16.389Z,8576.00
2022-07-28T07:03:16.434Z,8588.00
2022-07-28T07:04:16.773Z,8496.00
2022-07-28T07:05:16.303Z,8448.00
2022-07-28T07:06:16.274Z,8488.00
2022-07-28T07:07:17.298Z,8576.00
2022-07-28T07:08:16.218Z,8728.00
2022-07-28T07:09:16.240Z,8936.00
2022-07-28T07:10:16.160Z,9148.00
2022-07-28T07:11:16.146Z,9360.00
2022-07-28T07:12:16.098Z,9568.00
2022-07-28T07:13:16.221Z,9808.00
2022-07-28T07:14:16.406Z,10112.00
2022-07-28T07:15:16.014Z,10308.00
2022-07-28T07:16:16.075Z,10492.00
2022-07-28T07:17:15.985Z,10644.00
2022-07-28T07:18:16.378Z,10744.00
2022-07-28T07:19:16.166Z,10836.00
2022-07-28T07:20:17.213Z,10936.00
2022-07-28T07:21:15.850Z,11056.00
2022-07-28T07:22:15.815Z,11136.00
2022-07-28T07:23:15.789Z,11216.00
2022-07-28T07:24:16.090Z,11308.00
2022-07-28T07:25:15.737Z,11484.00
2022-07-28T07:26:16.317Z,11700.00
2022-07-28T07:27:15.715Z,11828.00
2022-07-28T07:28:15.661Z,11956.00
2022-07-28T07:29:15.720Z,12104.00
2022-07-28T07:30:15.600Z,12232.00
2022-07-28T07:31:15.623Z,12316.00
2022-07-28T07:32:15.536Z,12392.00
2022-07-28T07:33:15.513Z,12468.00
2022-07-28T07:34:15.678Z,12628.00
2022-07-28T07:35:15.513Z,12832.00
2022-07-28T07:36:15.479Z,13000.00
2022-07-28T07:37:15.408Z,13144.00
2022-07-28T07:38:15.379Z,13224.00
2022-07-28T07:39:15.351Z,13224.00
2022-07-28T07:40:15.401Z,13160.00
2022-07-28T07:41:15.299Z,12992.00
2022-07-28T07:42:15.275Z,12752.00
2022-07-28T07:43:15.247Z,12476.00
2022-07-28T07:44:15.557Z,12292.00
2022-07-28T07:45:15.190Z,12160.00
2022-07-28T07:46:15.284Z,12084.00
2022-07-28T07:47:15.153Z,12084.00
2022-07-28T07:48:15.110Z,12064.00
2022-07-28T07:49:15.227Z,12064.00
2022-07-28T07:50:15.060Z,12188.00
2022-07-28T07:51:15.765Z,12304.00
2022-07-28T07:52:15.063Z,12412.00
2022-07-28T07:53:14.980Z,12480.00
2022-07-28T07:54:15.252Z,12536.00
2022-07-28T07:55:14.927Z,12592.00
2022-07-28T07:56:14.975Z,12604.00
2022-07-28T07:57:14.885Z,12620.00
2022-07-28T07:58:14.848Z,12692.00
2022-07-28T07:59:14.827Z,12768.00
2022-07-28T08:00:29.313Z,12816.00
2022-07-28T08:01:21.776Z,12844.00
2022-07-28T08:02:14.824Z,12860.00
2022-07-28T08:03:14.720Z,12852.00
2022-07-28T08:04:15.254Z,12712.00
2022-07-28T08:05:14.674Z,12508.00
2022-07-28T08:06:14.645Z,12256.00
2022-07-28T08:07:14.686Z,12124.00
2022-07-28T08:08:14.594Z,11848.00
2022-07-28T08:09:14.566Z,11580.00
2022-07-28T08:10:14.543Z,11384.00
2022-07-28T08:11:14.514Z,11224.00
2022-07-28T08:12:14.485Z,11128.00
2022-07-28T08:13:14.669Z,11096.00
2022-07-28T08:14:14.796Z,11220.00
2022-07-28T08:15:14.412Z,11208.00
2022-07-28T08:16:14.427Z,11256.00
2022-07-28T08:17:14.361Z,11428.00
2022-07-28T08:18:14.332Z,11520.00
2022-07-28T08:19:14.385Z,11716.00
2022-07-28T08:20:14.290Z,12004.00
2022-07-28T08:21:14.261Z,12192.00
2022-07-28T08:22:14.233Z,12396.00
2022-07-28T08:23:14.205Z,12504.00
2022-07-28T08:24:27.608Z,12512.00
2022-07-28T08:25:14.153Z,12504.00
2022-07-28T08:26:14.129Z,12400.00
2022-07-28T08:27:14.100Z,12336.00
2022-07-28T08:28:14.080Z,12544.00
2022-07-28T08:29:14.110Z,12608.00
2022-07-28T08:30:14.026Z,12628.00
2022-07-28T08:31:14.081Z,12700.00
2022-07-28T08:32:13.984Z,12752.00
2022-07-28T08:33:13.952Z,12760.00
2022-07-28T08:34:26.358Z,12708.00
2022-07-28T08:35:32.417Z,12560.00
2022-07-28T08:36:13.922Z,12420.00
2022-07-28T08:37:13.893Z,12356.00
2022-07-28T08:38:13.847Z,12420.00
2022-07-28T08:39:13.854Z,12500.00
2022-07-28T08:40:13.832Z,12672.00
2022-07-28T08:41:13.751Z,12920.00
2022-07-28T08:42:13.742Z,13120.00
2022-07-28T08:43:13.701Z,13164.00
2022-07-28T08:44:13.939Z,13184.00
2022-07-28T08:45:13.703Z,13140.00
2022-07-28T08:46:13.675Z,13132.00
2022-07-28T08:47:13.599Z,13060.00
2022-07-28T08:48:13.609Z,13036.00
2022-07-28T08:49:14.900Z,12836.00
2022-07-28T08:50:13.727Z,12584.00
2022-07-28T08:51:13.502Z,12264.00
2022-07-28T08:52:13.479Z,12024.00
2022-07-28T08:53:13.495Z,11736.00
2022-07-28T08:54:13.680Z,11556.00
2022-07-28T08:55:19.141Z,11584.00
2022-07-28T08:56:13.434Z,11660.00
2022-07-28T08:57:13.363Z,11764.00
2022-07-28T08:58:13.332Z,11724.00
2022-07-28T08:59:13.331Z,11536.00
2022-07-28T09:00:13.284Z,11636.00
2022-07-28T09:01:13.927Z,11892.00
2022-07-28T09:02:13.353Z,12200.00
2022-07-28T09:03:13.319Z,12416.00
2022-07-28T09:04:13.470Z,12680.00
2022-07-28T09:05:13.198Z,12896.00
2022-07-28T09:06:13.160Z,12984.00
2022-07-28T09:07:13.230Z,13024.00
2022-07-28T09:08:13.156Z,13036.00
2022-07-28T09:09:13.103Z,13040.00
2022-07-28T09:10:13.095Z,13036.00
2022-07-28T09:11:13.022Z,13008.00
2022-07-28T09:12:13.044Z,13012.00
2022-07-28T09:13:13.431Z,13024.00
2022-07-28T09:14:13.205Z,13036.00
2022-07-28T09:15:12.976Z,13056.00
2022-07-28T09:16:13.003Z,13092.00
2022-07-28T09:17:12.946Z,13116.00
2022-07-28T09:18:12.893Z,13144.00
2022-07-28T09:19:12.873Z,13192.00
2022-07-28T09:20:12.874Z,13188.00
2022-07-28T09:21:12.769Z,13072.00
2022-07-28T09:22:12.748Z,12836.00
2022-07-28T09:23:41.798Z,12568.00
2022-07-28T09:24:12.970Z,12332.00
2022-07-28T09:25:12.689Z,12096.00
2022-07-28T09:26:12.985Z,11732.00
2022-07-28T09:27:12.627Z,11352.00
2022-07-28T09:28:12.596Z,11060.00
2022-07-28T09:29:12.650Z,10752.00
2022-07-28T09:30:12.574Z,10468.00
2022-07-28T09:31:12.555Z,10280.00
2022-07-28T09:32:12.500Z,10096.00
2022-07-28T09:33:12.480Z,9932.00
2022-07-28T09:34:12.900Z,9888.00
2022-07-28T09:35:12.518Z,9856.00
2022-07-28T09:36:12.466Z,9856.00
2022-07-28T09:37:12.385Z,9844.00
2022-07-28T09:38:12.367Z,9784.00
2022-07-28T09:39:12.333Z,9792.00
2022-07-28T09:40:12.313Z,9792.00
2022-07-28T09:41:12.361Z,9744.00
2022-07-28T09:42:12.263Z,9712.00
2022-07-28T09:43:12.235Z,9736.00
2022-07-28T09:44:12.504Z,9640.00
2022-07-28T09:45:23.041Z,9512.00
2022-07-28T09:46:12.385Z,9472.00
2022-07-28T09:47:12.553Z,9316.00
2022-07-28T09:48:12.253Z,9052.00
2022-07-28T09:49:12.216Z,8928.00
2022-07-28T09:50:12.071Z,8832.00
2022-07-28T09:51:15.258Z,8704.00
2022-07-28T09:52:12.109Z,8592.00
2022-07-28T09:53:11.996Z,8484.00
2022-07-28T09:54:12.341Z,8380.00
2022-07-28T09:55:11.944Z,8276.00
2022-07-28T09:56:11.942Z,8168.00
2022-07-28T09:57:11.945Z,8068.00
2022-07-28T09:58:11.926Z,7980.00
2022-07-28T09:59:12.853Z,7872.00
2022-07-28T10:00:11.821Z,7908.00
2022-07-28T10:01:12.349Z,8264.00
2022-07-28T10:02:11.910Z,8792.00
2022-07-28T10:03:11.814Z,8664.00
2022-07-28T10:04:11.737Z,8240.00
2022-07-28T10:05:11.716Z,7736.00
2022-07-28T10:06:11.678Z,7624.00
2022-07-28T10:07:11.697Z,8036.00
2022-07-28T10:08:11.835Z,8428.00
2022-07-28T10:09:11.701Z,8860.00
2022-07-28T10:10:11.572Z,9172.00
2022-07-28T10:11:11.554Z,9520.00
2022-07-28T10:12:11.519Z,10316.00
2022-07-28T10:13:11.495Z,10024.00
2022-07-28T10:14:11.644Z,9996.00
2022-07-28T10:15:11.535Z,10540.00
2022-07-28T10:16:11.467Z,11144.00
2022-07-28T10:17:11.398Z,11304.00
2022-07-28T10:18:11.414Z,11772.00
2022-07-28T10:19:11.390Z,11640.00
2022-07-28T10:20:11.320Z,10644.00
2022-07-28T10:21:11.376Z,9900.00
2022-07-28T10:22:11.286Z,9268.00
2022-07-28T10:23:11.262Z,8520.00
2022-07-28T10:24:11.438Z,7924.00
2022-07-28T10:25:11.202Z,7416.00
2022-07-28T10:26:12.964Z,7028.00
2022-07-28T10:27:11.363Z,6868.00
2022-07-28T10:28:11.129Z,6648.00
2022-07-28T10:29:11.134Z,6300.00
2022-07-28T10:30:11.095Z,6312.00
2022-07-28T10:31:11.181Z,6296.00
2022-07-28T10:32:11.035Z,6380.00
2022-07-28T10:33:11.201Z,6352.00
2022-07-28T10:34:16.009Z,6084.00
2022-07-28T10:35:10.967Z,6012.00
2022-07-28T10:36:10.945Z,6208.00
2022-07-28T10:37:10.943Z,6204.00
2022-07-28T10:38:10.889Z,5960.00
2022-07-28T10:39:11.041Z,5748.00
2022-07-28T10:40:11.120Z,5660.00
2022-07-28T10:41:10.825Z,5672.00
2022-07-28T10:42:10.781Z,5724.00
2022-07-28T10:43:10.837Z,5616.00
2022-07-28T10:44:10.730Z,5304.00
2022-07-28T10:45:10.774Z,5076.00
2022-07-28T10:46:15.604Z,4976.00
2022-07-28T10:47:17.883Z,4964.00
2022-07-28T10:48:10.845Z,4896.00
2022-07-28T10:49:10.648Z,4828.00
2022-07-28T10:50:10.578Z,4768.00
2022-07-28T10:51:10.624Z,4736.00
2022-07-28T10:52:30.457Z,4696.00
2022-07-28T10:53:10.514Z,4632.00
2022-07-28T10:54:10.511Z,4548.00
2022-07-28T10:55:10.473Z,4512.00
2022-07-28T10:56:10.428Z,4572.00
2022-07-28T10:57:10.589Z,4640.00
2022-07-28T10:58:11.116Z,4692.00
2022-07-28T10:59:10.351Z,4740.00
2022-07-28T11:00:15.540Z,4752.00
2022-07-28T11:01:17.059Z,4688.00
2022-07-28T11:02:10.371Z,4712.00
2022-07-28T11:03:13.916Z,4748.00
2022-07-28T11:04:10.226Z,4720.00
2022-07-28T11:05:10.192Z,4680.00
2022-07-28T11:06:10.173Z,4604.00
2022-07-28T11:07:10.142Z,4500.00
2022-07-28T11:08:10.113Z,4504.00
2022-07-28T11:09:10.318Z,4640.00
2022-07-28T11:10:10.081Z,4740.00
2022-07-28T11:11:10.049Z,4848.00
2022-07-28T11:12:10.183Z,4944.00
2022-07-28T11:13:14.398Z,5112.00
2022-07-28T11:14:09.963Z,5536.00
2022-07-28T11:15:18.300Z,5856.00
2022-07-28T11:16:09.915Z,6012.00
2022-07-28T11:17:10.167Z,5944.00
2022-07-28T11:18:09.862Z,5696.00
2022-07-28T11:19:40.598Z,5648.00
2022-07-28T11:20:27.311Z,5808.00
2022-07-28T11:21:09.828Z,5740.00
2022-07-28T11:22:09.757Z,5420.00
2022-07-28T11:23:09.731Z,5224.00
2022-07-28T11:24:09.710Z,5124.00
2022-07-28T11:25:21.000Z,4980.00
2022-07-28T11:26:09.750Z,4812.00
2022-07-28T11:27:09.635Z,4708.00
2022-07-28T11:28:09.612Z,4896.00
2022-07-28T11:29:09.581Z,5264.00
2022-07-28T11:30:09.552Z,5416.00
2022-07-28T11:31:09.657Z,5504.00
2022-07-28T11:32:09.557Z,5524.00
2022-07-28T11:33:09.537Z,5244.00
2022-07-28T11:34:09.453Z,5008.00
2022-07-28T11:35:09.436Z,4952.00
2022-07-28T11:36:09.398Z,4960.00
2022-07-28T11:37:09.455Z,5024.00
2022-07-28T11:38:09.356Z,5012.00
2022-07-28T11:39:09.364Z,5076.00
2022-07-28T11:40:09.302Z,5172.00
2022-07-28T11:41:09.267Z,5156.00
2022-07-28T11:42:09.308Z,5040.00
2022-07-28T11:43:09.349Z,4844.00
2022-07-28T11:44:09.192Z,4744.00
2022-07-28T11:45:09.165Z,4732.00
2022-07-28T11:46:11.435Z,4780.00
2022-07-28T11:47:09.118Z,4892.00
2022-07-28T11:48:09.143Z,4956.00
2022-07-28T11:49:14.886Z,4980.00
2022-07-28T11:50:09.034Z,4944.00
2022-07-28T11:51:09.038Z,4892.00
2022-07-28T11:52:08.987Z,4808.00
2022-07-28T11:53:09.007Z,4936.00
2022-07-28T11:54:08.935Z,5268.00
2022-07-28T11:55:08.909Z,5520.00
2022-07-28T11:56:08.984Z,5748.00
2022-07-28T11:57:08.860Z,5884.00
2022-07-28T11:58:08.886Z,6260.00
2022-07-28T11:59:08.800Z,6672.00
2022-07-28T12:00:08.780Z,7320.00
2022-07-28T12:01:08.749Z,7392.00
2022-07-28T12:02:08.777Z,7360.00
2022-07-28T12:03:08.754Z,7308.00
2022-07-28T12:04:10.433Z,6952.00
2022-07-28T12:05:08.732Z,6816.00
2022-07-28T12:06:08.641Z,6848.00
2022-07-28T12:07:08.598Z,6660.00
2022-07-28T12:08:08.669Z,6808.00
2022-07-28T12:09:08.600Z,7760.00
2022-07-28T12:10:08.527Z,8880.00
2022-07-28T12:11:08.513Z,9236.00
2022-07-28T12:12:08.473Z,9064.00
2022-07-28T12:13:08.996Z,8340.00
2022-07-28T12:14:08.430Z,8344.00
2022-07-28T12:15:08.397Z,8484.00
2022-07-28T12:16:08.383Z,8580.00
2022-07-28T12:17:08.385Z,8820.00
2022-07-28T12:18:08.321Z,9052.00